createdAt,value
2022-10-11T00:00:11.828Z,100105.50
2022-10-11T00:02:38.586Z,100107.19
2022-10-11T00:05:05.770Z,100108.88
2022-10-11T00:07:43.077Z,100101.06
2022-10-11T00:10:10.433Z,100107.03
2022-10-11T00:12:52.688Z,100102.69
2022-10-11T00:15:21.049Z,100097.53
2022-10-11T00:17:48.189Z,100098.31
2022-10-11T00:20:24.323Z,100095.75
2022-10-11T00:23:02.152Z,100097.50
2022-10-11T00:25:41.326Z,100092.34
2022-10-11T00:28:19.045Z,100095.69
2022-10-11T00:30:55.689Z,100089.63
2022-10-11T00:34:17.213Z,100087.84
2022-10-11T00:36:45.253Z,100082.66
2022-10-11T00:39:23.525Z,100087.75
2022-10-11T00:42:01.852Z,100080.81
2022-10-11T00:44:48.592Z,100077.34
2022-10-11T00:47:27.848Z,100076.41
2022-10-11T00:50:10.045Z,100084.09
2022-10-11T00:52:49.938Z,100079.72
2022-10-11T00:55:31.402Z,100087.41
2022-10-11T00:58:08.556Z,100083.94
2022-10-11T01:00:47.031Z,100078.75
2022-10-11T01:03:27.345Z,100071.81
2022-10-11T01:06:08.171Z,100075.19
2022-10-11T01:08:46.570Z,100074.31
2022-10-11T01:11:24.084Z,100077.69
2022-10-11T01:14:02.794Z,100069.97
2022-10-11T01:16:52.004Z,100069.13
2022-10-11T01:19:38.556Z,100069.13
2022-10-11T01:22:16.693Z,100075.97
2022-10-11T01:25:01.623Z,100071.66
2022-10-11T01:27:55.893Z,100075.91
2022-10-11T01:30:33.102Z,100067.19
2022-10-11T01:33:28.797Z,100067.19
2022-10-11T01:36:14.161Z,100072.25
2022-10-11T01:38:56.652Z,100071.28
2022-10-11T01:41:46.894Z,100065.19
2022-10-11T01:44:27.221Z,100071.16
2022-10-11T01:47:04.796Z,100062.47
2022-10-11T01:49:43.207Z,100067.72
2022-10-11T01:52:21.724Z,100064.72
2022-10-11T01:55:23.133Z,100067.53
2022-10-11T01:58:08.845Z,100073.75
2022-10-11T02:01:09.332Z,100077.34
2022-10-11T02:03:56.349Z,100078.09
2022-10-11T02:06:54.391Z,100070.50
2022-10-11T02:09:37.247Z,100070.38
2022-10-11T02:12:22.797Z,100072.75
2022-10-11T02:15:02.659Z,100075.13
2022-10-11T02:17:42.010Z,100078.47
2022-10-11T02:20:23.411Z,100075.03
2022-10-11T02:23:06.075Z,100075.03
2022-10-11T02:25:47.447Z,100075.84
2022-10-11T02:28:28.416Z,100073.25
2022-10-11T02:31:08.773Z,100073.44
2022-10-11T02:33:53.926Z,100069.25
2022-10-11T02:36:51.953Z,100075.97
2022-10-11T02:39:41.889Z,100079.22
2022-10-11T02:42:26.998Z,100072.31
2022-10-11T02:45:07.920Z,100077.44
2022-10-11T02:47:47.865Z,100079.38
2022-10-11T02:50:25.191Z,100078.66
2022-10-11T02:53:04.826Z,100073.56
2022-10-11T02:55:43.732Z,100072.59
2022-10-11T02:58:20.000Z,100071.66
2022-10-11T03:00:58.536Z,100075.94
2022-10-11T03:03:34.635Z,100078.25
2022-10-11T03:06:14.368Z,100079.84
2022-10-11T03:08:53.157Z,100076.50
2022-10-11T03:11:31.591Z,100081.72
2022-10-11T03:14:11.294Z,100075.66
2022-10-11T03:16:47.365Z,100072.31
2022-10-11T03:19:26.185Z,100070.59
2022-10-11T03:22:02.194Z,100073.03
2022-10-11T03:24:40.937Z,100072.00
2022-10-11T03:27:17.097Z,100073.72
2022-10-11T03:29:54.666Z,100068.47
2022-10-11T03:32:31.962Z,100062.53
2022-10-11T03:35:10.700Z,100063.28
2022-10-11T03:37:49.872Z,100065.63
2022-10-11T03:40:27.095Z,100067.38
2022-10-11T03:43:05.277Z,100055.22
2022-10-11T03:45:44.365Z,100056.97
2022-10-11T03:48:21.240Z,100052.09
2022-10-11T03:51:00.018Z,100051.19
2022-10-11T03:53:38.749Z,100042.72
2022-10-11T03:56:24.141Z,100053.00
2022-10-11T03:59:02.839Z,100049.56
2022-10-11T04:01:41.115Z,100048.78
2022-10-11T04:04:17.156Z,100047.06
2022-10-11T04:06:53.764Z,100052.19
2022-10-11T04:09:30.445Z,100049.44
2022-10-11T04:12:09.146Z,100060.38
2022-10-11T04:14:47.350Z,100051.59
2022-10-11T04:17:23.472Z,100052.31
2022-10-11T04:20:02.203Z,100058.25
2022-10-11T04:22:40.450Z,100056.41
2022-10-11T04:25:16.645Z,100047.75
2022-10-11T04:27:55.288Z,100053.63
2022-10-11T04:30:33.732Z,100057.78
2022-10-11T04:33:11.597Z,100055.97
2022-10-11T04:35:53.375Z,100057.63
2022-10-11T04:38:29.274Z,100055.06
2022-10-11T04:41:10.401Z,100057.72
2022-10-11T04:43:49.395Z,100051.00
2022-10-11T04:46:27.672Z,100052.81
2022-10-11T04:49:06.194Z,100056.28
2022-10-11T04:51:45.695Z,100056.28
2022-10-11T04:54:25.428Z,100047.72
2022-10-11T04:57:03.764Z,100051.16
2022-10-11T04:59:45.432Z,100053.72
2022-10-11T05:02:27.967Z,100051.16
2022-10-11T05:05:04.428Z,100051.22
2022-10-11T05:07:43.388Z,100059.84
2022-10-11T05:10:21.069Z,100056.50
2022-10-11T05:13:01.180Z,100056.59
2022-10-11T05:15:39.286Z,100057.53
2022-10-11T05:18:17.608Z,100058.56
2022-10-11T05:21:09.502Z,100057.78
2022-10-11T05:23:49.292Z,100057.03
2022-10-11T05:26:28.560Z,100054.59
2022-10-11T05:29:08.068Z,100054.75
2022-10-11T05:31:48.209Z,100047.25
2022-10-11T05:34:30.311Z,100042.38
2022-10-11T05:37:09.101Z,100051.28
2022-10-11T05:39:46.336Z,100047.94
2022-10-11T05:42:25.618Z,100047.09
2022-10-11T05:45:05.822Z,100051.41
2022-10-11T05:47:43.074Z,100042.94
2022-10-11T05:50:24.021Z,100048.13
2022-10-11T05:53:01.731Z,100051.66
2022-10-11T05:55:41.850Z,100048.34
2022-10-11T05:58:19.438Z,100039.84
2022-10-11T06:00:56.948Z,100044.28
2022-10-11T06:03:33.992Z,100041.81
2022-10-11T06:06:12.817Z,100036.81
2022-10-11T06:08:50.361Z,100034.34
2022-10-11T06:11:29.420Z,100033.63
2022-10-11T06:14:21.194Z,100035.47
2022-10-11T06:17:38.046Z,100020.19
2022-10-11T06:20:39.710Z,100030.66
2022-10-11T06:23:38.524Z,100030.78
2022-10-11T06:26:35.373Z,100024.09
2022-10-11T06:29:33.624Z,100030.25
2022-10-11T06:32:45.490Z,100026.91
2022-10-11T06:35:41.082Z,100027.03
2022-10-11T06:38:45.171Z,100024.56
2022-10-11T06:41:37.949Z,100019.56
2022-10-11T06:44:14.953Z,100019.66
2022-10-11T06:47:07.727Z,100023.22
2022-10-11T06:50:06.340Z,100019.84
2022-10-11T06:53:17.359Z,100014.84
2022-10-11T06:55:54.294Z,100016.66
2022-10-11T06:58:51.314Z,100014.97
2022-10-11T07:01:27.784Z,100018.53
2022-10-11T07:04:04.078Z,100010.00
2022-10-11T07:06:56.384Z,100011.81
2022-10-11T07:09:51.945Z,100017.09
2022-10-11T07:12:50.627Z,100017.25
2022-10-11T07:15:44.871Z,100019.13
2022-10-11T07:18:41.566Z,100018.31
2022-10-11T07:21:18.117Z,100017.53
2022-10-11T07:23:54.708Z,100013.25
2022-10-11T07:26:37.475Z,100017.59
2022-10-11T07:29:40.646Z,100021.13
2022-10-11T07:32:16.574Z,100011.72
2022-10-11T07:35:12.562Z,100009.22
2022-10-11T07:37:50.642Z,100010.22
2022-10-11T07:40:44.012Z,100003.38
2022-10-11T07:43:37.785Z,100012.03
2022-10-11T07:46:48.246Z,99997.47
2022-10-11T07:49:43.619Z,99994.09
2022-10-11T07:52:47.940Z,99991.50
2022-10-11T07:55:24.051Z,99985.50
2022-10-11T07:58:20.125Z,99994.09
2022-10-11T08:01:12.367Z,99994.09
2022-10-11T08:04:05.097Z,99995.03
2022-10-11T08:06:57.418Z,99989.09
2022-10-11T08:09:34.287Z,99987.41
2022-10-11T08:12:47.090Z,99987.56
2022-10-11T08:15:43.737Z,99988.47
2022-10-11T08:18:20.228Z,99978.09
2022-10-11T08:20:56.755Z,99983.28
2022-10-11T08:24:05.005Z,99985.03
2022-10-11T08:27:00.499Z,99975.53
2022-10-11T08:30:05.903Z,99974.75
2022-10-11T08:33:06.182Z,99975.66
2022-10-11T08:36:06.021Z,99972.16
2022-10-11T08:39:05.650Z,99973.84
2022-10-11T08:41:46.290Z,99966.09
2022-10-11T08:45:12.858Z,99967.88
2022-10-11T08:47:49.908Z,99965.28
2022-10-11T08:50:44.554Z,99960.97
2022-10-11T08:53:39.180Z,99958.41
2022-10-11T08:56:17.573Z,99949.78
2022-10-11T08:58:52.601Z,99946.38
2022-10-11T09:01:23.817Z,99948.97
2022-10-11T09:03:51.028Z,99942.06
2022-10-11T09:06:35.648Z,99935.19
2022-10-11T09:09:33.962Z,99936.94
2022-10-11T09:12:16.267Z,99946.53
2022-10-11T09:15:25.330Z,99935.31
2022-10-11T09:18:06.835Z,99924.06
2022-10-11T09:21:01.361Z,99927.53
2022-10-11T09:23:48.455Z,99916.34
2022-10-11T09:26:21.627Z,99920.69
2022-10-11T09:29:24.043Z,99912.03
2022-10-11T09:31:53.672Z,99917.25
2022-10-11T09:34:22.034Z,99904.31
2022-10-11T09:36:57.570Z,99854.22
2022-10-11T09:39:34.321Z,99900.00
2022-10-11T09:42:01.497Z,99887.94
2022-10-11T09:44:29.658Z,99893.97
2022-10-11T09:46:57.501Z,99862.84
2022-10-11T09:49:44.356Z,99878.38
2022-10-11T09:52:18.361Z,99880.13
2022-10-11T09:54:46.833Z,99766.91
2022-10-11T09:57:30.607Z,99838.66
2022-10-11T09:59:59.318Z,99874.94
2022-10-11T10:02:26.571Z,99849.00
2022-10-11T10:05:22.387Z,99804.06
2022-10-11T10:08:04.337Z,99849.91
2022-10-11T10:10:31.744Z,99766.94
2022-10-11T10:13:00.176Z,99808.41
2022-10-11T10:15:29.959Z,99860.25
2022-10-11T10:17:57.065Z,99836.00
2022-10-11T10:20:28.966Z,99666.06
2022-10-11T10:22:56.052Z,99735.38
2022-10-11T10:25:31.969Z,99757.53
2022-10-11T10:27:59.887Z,99707.06
2022-10-11T10:30:28.342Z,99610.25
2022-10-11T10:33:03.728Z,99584.97
2022-10-11T10:35:32.553Z,99679.16
2022-10-11T10:37:59.994Z,99478.78
2022-10-11T10:40:46.873Z,99521.72
2022-10-11T10:43:15.711Z,99482.28
2022-10-11T10:45:57.364Z,99590.56
2022-10-11T10:48:26.772Z,99587.66
2022-10-11T10:50:58.879Z,99211.91
2022-10-11T10:53:29.630Z,99089.28
2022-10-11T10:55:59.273Z,99217.44
2022-10-11T10:58:37.936Z,99296.41
2022-10-11T11:01:13.809Z,99368.38
2022-10-11T11:03:52.488Z,99341.84
2022-10-11T11:06:26.907Z,99288.53
2022-10-11T11:09:25.996Z,99224.91
2022-10-11T11:12:03.088Z,99317.53
2022-10-11T11:14:35.747Z,99409.81
2022-10-11T11:17:17.873Z,99365.50
2022-10-11T11:19:44.458Z,99390.88
2022-10-11T11:22:23.098Z,99386.53
2022-10-11T11:24:49.681Z,98892.72
2022-10-11T11:27:22.154Z,99016.44
2022-10-11T11:29:51.918Z,99066.91
2022-10-11T11:32:45.449Z,99193.97
2022-10-11T11:35:17.435Z,99247.00
2022-10-11T11:37:46.887Z,99296.88
2022-10-11T11:40:13.520Z,99324.53
2022-10-11T11:42:52.503Z,99215.44
2022-10-11T11:45:25.057Z,99277.88
2022-10-11T11:47:56.885Z,99187.50
2022-10-11T11:50:25.087Z,99273.69
2022-10-11T11:52:58.062Z,99275.06
2022-10-11T11:55:36.508Z,99252.66
2022-10-11T11:58:07.420Z,99177.59
2022-10-11T12:00:43.173Z,99067.63
2022-10-11T12:03:12.984Z,99065.13
2022-10-11T12:05:59.504Z,99094.88
2022-10-11T12:08:28.188Z,99126.78
2022-10-11T12:10:56.035Z,99116.63
2022-10-11T12:13:32.015Z,98995.16
2022-10-11T12:16:13.638Z,98948.53
2022-10-11T12:19:08.239Z,98956.94
2022-10-11T12:21:36.909Z,99036.97
2022-10-11T12:24:06.236Z,98972.72
2022-10-11T12:26:35.401Z,98850.72
2022-10-11T12:29:04.929Z,98946.28
2022-10-11T12:31:32.982Z,99015.78
2022-10-11T12:34:16.420Z,98989.13
2022-10-11T12:36:45.001Z,99032.63
2022-10-11T12:39:20.942Z,98991.94
2022-10-11T12:41:47.544Z,98871.25
2022-10-11T12:44:28.252Z,98952.56
2022-10-11T12:46:55.004Z,98968.13
2022-10-11T12:49:34.003Z,98987.00
2022-10-11T12:52:19.533Z,98982.16
2022-10-11T12:55:04.611Z,98985.97
2022-10-11T12:57:31.207Z,98982.41
2022-10-11T13:00:07.730Z,99016.03
2022-10-11T13:02:40.516Z,99005.53
2022-10-11T13:05:27.510Z,98809.53
2022-10-11T13:07:57.415Z,98915.25
2022-10-11T13:10:29.397Z,98937.50
2022-10-11T13:12:59.602Z,98887.38
2022-10-11T13:15:26.642Z,98896.44
2022-10-11T13:17:58.868Z,98965.00
2022-10-11T13:20:26.356Z,99023.09
2022-10-11T13:22:53.801Z,99052.03
2022-10-11T13:25:22.483Z,99089.44
2022-10-11T13:27:50.111Z,99120.44
2022-10-11T13:30:34.373Z,99131.25
2022-10-11T13:33:04.832Z,99152.69
2022-10-11T13:35:31.399Z,99172.28
2022-10-11T13:37:58.418Z,99197.91
2022-10-11T13:40:25.449Z,99212.97
2022-10-11T13:42:53.032Z,99177.91
2022-10-11T13:45:24.604Z,99127.56
2022-10-11T13:47:52.306Z,99131.84
2022-10-11T13:50:19.117Z,99140.13
2022-10-11T13:52:54.592Z,99113.38
2022-10-11T13:55:29.412Z,99059.94
2022-10-11T13:57:58.019Z,99071.34
2022-10-11T14:00:30.333Z,99040.91
2022-10-11T14:02:59.273Z,99039.03
2022-10-11T14:05:30.751Z,99062.16
2022-10-11T14:07:58.598Z,99054.22
2022-10-11T14:10:26.065Z,99073.44
2022-10-11T14:13:00.593Z,99113.03
2022-10-11T14:15:31.066Z,99113.13
2022-10-11T14:17:58.769Z,99136.44
2022-10-11T14:20:33.589Z,99197.16
2022-10-11T14:23:00.185Z,99214.31
2022-10-11T14:25:26.866Z,99217.38
2022-10-11T14:27:54.672Z,99220.28
2022-10-11T14:30:27.242Z,99227.72
2022-10-11T14:32:55.840Z,99236.94
2022-10-11T14:35:24.629Z,99256.34
2022-10-11T14:37:51.656Z,99285.41
2022-10-11T14:40:20.592Z,99300.34
2022-10-11T14:42:47.538Z,99336.84
2022-10-11T14:45:14.177Z,99344.78
2022-10-11T14:47:43.097Z,99360.50
2022-10-11T14:50:28.460Z,99366.72
2022-10-11T14:52:55.243Z,99393.69
2022-10-11T14:55:22.162Z,99411.97
2022-10-11T14:57:49.182Z,99420.75
2022-10-11T15:00:22.269Z,99443.34
2022-10-11T15:02:49.563Z,99457.28
2022-10-11T15:05:16.176Z,99466.03
2022-10-11T15:07:42.834Z,99492.06
2022-10-11T15:10:29.780Z,99497.34
2022-10-11T15:12:56.757Z,99514.78
2022-10-11T15:15:24.887Z,99532.13
2022-10-11T15:17:54.017Z,99549.47
2022-10-11T15:20:28.860Z,99571.06
2022-10-11T15:22:56.207Z,99594.44
2022-10-11T15:25:23.422Z,99622.06
2022-10-11T15:27:50.405Z,99639.31
2022-10-11T15:30:28.222Z,99663.47
2022-10-11T15:32:55.002Z,99690.22
2022-10-11T15:35:23.020Z,99713.47
2022-10-11T15:37:53.867Z,99744.50
2022-10-11T15:40:25.243Z,99763.44
2022-10-11T15:42:53.142Z,99768.63
2022-10-11T15:45:22.908Z,99784.97
2022-10-11T15:47:51.561Z,99807.34
2022-10-11T15:50:34.669Z,99815.94
2022-10-11T15:53:13.282Z,99835.72
2022-10-11T15:55:41.868Z,99841.72
2022-10-11T15:58:19.210Z,99853.75
2022-10-11T16:00:46.520Z,99863.19
2022-10-11T16:03:14.357Z,99865.72
2022-10-11T16:05:41.671Z,99866.56
2022-10-11T16:08:08.540Z,99895.78
2022-10-11T16:10:35.507Z,99912.97
2022-10-11T16:13:02.172Z,99927.50
2022-10-11T16:15:28.833Z,99927.47
2022-10-11T16:17:55.514Z,99938.59
2022-10-11T16:20:24.593Z,99948.84
2022-10-11T16:22:52.949Z,99920.44
2022-10-11T16:25:20.365Z,99943.59
2022-10-11T16:27:47.002Z,99964.16
2022-10-11T16:30:14.894Z,99974.34
2022-10-11T16:32:42.044Z,99957.91
2022-10-11T16:35:08.956Z,99951.75
2022-10-11T16:37:36.357Z,99968.84
2022-10-11T16:40:03.370Z,99987.66
2022-10-11T16:42:30.760Z,100003.13
2022-10-11T16:44:57.364Z,100016.00
2022-10-11T16:47:23.963Z,100046.06
2022-10-11T16:49:50.589Z,100052.03
2022-10-11T16:52:17.351Z,100054.59
2022-10-11T16:54:44.935Z,100068.38
2022-10-11T16:57:12.359Z,100056.31
2022-10-11T16:59:39.084Z,100041.69
2022-10-11T17:02:06.130Z,100044.16
2022-10-11T17:04:32.879Z,100044.97
2022-10-11T17:06:59.774Z,100052.66
2022-10-11T17:09:26.457Z,100078.38
2022-10-11T17:11:53.137Z,100068.03
2022-10-11T17:14:21.743Z,100084.28
2022-10-11T17:16:48.479Z,100092.00
2022-10-11T17:19:16.398Z,100083.38
2022-10-11T17:21:43.225Z,100097.03
2022-10-11T17:24:10.049Z,100097.00
2022-10-11T17:26:36.737Z,100108.06
2022-10-11T17:29:03.389Z,100138.97
2022-10-11T17:31:30.712Z,100121.69
2022-10-11T17:34:00.469Z,100113.94
2022-10-11T17:36:30.481Z,100113.88
2022-10-11T17:38:58.051Z,100132.72
2022-10-11T17:41:29.466Z,100124.06
2022-10-11T17:43:59.316Z,100123.19
2022-10-11T17:46:27.714Z,100138.69
2022-10-11T17:48:55.689Z,100148.97
2022-10-11T17:51:22.863Z,100166.13
2022-10-11T17:53:50.969Z,100179.03
2022-10-11T17:56:21.799Z,100182.50
2022-10-11T17:58:52.705Z,100185.91
2022-10-11T18:01:20.368Z,100195.31
2022-10-11T18:04:06.361Z,100207.38
2022-10-11T18:06:37.632Z,100213.34
2022-10-11T18:09:04.366Z,100228.75
2022-10-11T18:11:31.411Z,100238.16
2022-10-11T18:13:58.087Z,100250.09
2022-10-11T18:16:26.991Z,100252.59
2022-10-11T18:18:54.397Z,100250.84
2022-10-11T18:21:21.041Z,100249.97
2022-10-11T18:23:47.718Z,100253.34
2022-10-11T18:26:16.269Z,100254.91
2022-10-11T18:28:43.255Z,100258.22
2022-10-11T18:31:13.499Z,100246.94
2022-10-11T18:33:41.210Z,100236.50
2022-10-11T18:36:09.292Z,100229.56
2022-10-11T18:38:37.726Z,100220.94
2022-10-11T18:41:08.601Z,100205.41
2022-10-11T18:43:35.979Z,100181.34
2022-10-11T18:46:06.283Z,100166.69
2022-10-11T18:48:33.315Z,100153.78
2022-10-11T18:51:07.763Z,100097.97
2022-10-11T18:53:35.285Z,100083.38
2022-10-11T18:56:03.173Z,100090.19
2022-10-11T18:58:30.331Z,100065.22
2022-10-11T19:01:03.499Z,100055.75
2022-10-11T19:03:34.839Z,100031.72
2022-10-11T19:06:03.423Z,100019.69
2022-10-11T19:08:30.239Z,99996.50
2022-10-11T19:10:56.973Z,99950.97
2022-10-11T19:13:23.681Z,99896.91
2022-10-11T19:15:50.287Z,99875.47
2022-10-11T19:18:20.354Z,99849.66
2022-10-11T19:20:47.271Z,99792.09
2022-10-11T19:23:13.882Z,99784.31
2022-10-11T19:25:40.485Z,99762.81
2022-10-11T19:28:07.190Z,99755.06
2022-10-11T19:30:33.774Z,99739.63
2022-10-11T19:33:01.021Z,99726.72
2022-10-11T19:35:27.763Z,99713.84
2022-10-11T19:37:54.363Z,99691.50
2022-10-11T19:40:20.957Z,99672.63
2022-10-11T19:42:47.630Z,99657.13
2022-10-11T19:45:14.284Z,99659.63
2022-10-11T19:47:40.947Z,99656.13
2022-10-11T19:50:07.779Z,99651.78
2022-10-11T19:52:34.669Z,99655.09
2022-10-11T19:55:01.410Z,99646.44
2022-10-11T19:57:28.006Z,99649.81
2022-10-11T19:59:54.588Z,99649.75
2022-10-11T20:02:21.277Z,99647.97
2022-10-11T20:04:53.208Z,99647.91
2022-10-11T20:07:20.070Z,99646.13
2022-10-11T20:09:46.711Z,99650.38
2022-10-11T20:12:13.310Z,99643.44
2022-10-11T20:14:39.909Z,99640.03
2022-10-11T20:17:06.572Z,99638.28
2022-10-11T20:19:33.151Z,99642.56
2022-10-11T20:22:00.727Z,99634.78
2022-10-11T20:24:29.445Z,99632.13
2022-10-11T20:26:56.044Z,99630.38
2022-10-11T20:29:23.576Z,99625.22
2022-10-11T20:31:50.272Z,99637.09
2022-10-11T20:34:17.201Z,99630.13
2022-10-11T20:36:48.230Z,99625.75
2022-10-11T20:39:16.028Z,99632.56
2022-10-11T20:41:42.935Z,99627.41
2022-10-11T20:44:09.828Z,99630.75
2022-10-11T20:46:37.901Z,99633.31
2022-10-11T20:49:06.303Z,99629.84
2022-10-11T20:51:34.220Z,99628.06
2022-10-11T20:54:02.151Z,99626.31
2022-10-11T20:56:29.834Z,99627.16
2022-10-11T20:58:57.312Z,99621.16
2022-10-11T21:01:26.353Z,99621.16
2022-10-11T21:03:53.553Z,99623.69
2022-10-11T21:06:20.537Z,99619.38
2022-10-11T21:08:47.099Z,99620.22
2022-10-11T21:11:13.732Z,99617.63
2022-10-11T21:13:40.541Z,99614.16
2022-10-11T21:16:10.824Z,99612.41
2022-10-11T21:18:37.783Z,99608.16
2022-10-11T21:21:05.299Z,99611.50
2022-10-11T21:23:31.905Z,99604.63
2022-10-11T21:26:02.295Z,99605.44
2022-10-11T21:28:29.603Z,99602.06
2022-10-11T21:31:02.228Z,99610.56
2022-10-11T21:33:30.161Z,99613.03
2022-10-11T21:35:57.532Z,99608.59
2022-10-11T21:38:24.111Z,99617.06
2022-10-11T21:40:50.713Z,99617.03
2022-10-11T21:43:17.348Z,99612.72
2022-10-11T21:45:44.024Z,99608.44
2022-10-11T21:48:10.633Z,99599.88
2022-10-11T21:50:37.233Z,99597.31
2022-10-11T21:53:03.883Z,99595.63
2022-10-11T21:55:30.560Z,99601.56
2022-10-11T21:57:57.233Z,99601.50
2022-10-11T22:00:24.021Z,99600.59
2022-10-11T22:02:51.922Z,99602.31
2022-10-11T22:05:18.902Z,99600.59
2022-10-11T22:07:45.629Z,99598.91
2022-10-11T22:10:12.291Z,99598.84
2022-10-11T22:12:38.937Z,99596.25
2022-10-11T22:15:05.884Z,99596.28
2022-10-11T22:17:32.493Z,99592.84
2022-10-11T22:19:59.099Z,99600.53
2022-10-11T22:22:25.709Z,99593.72
2022-10-11T22:24:52.455Z,99601.38
2022-10-11T22:27:19.104Z,99596.22
2022-10-11T22:29:45.699Z,99591.06
2022-10-11T22:32:12.324Z,99587.59
2022-10-11T22:34:38.962Z,99590.97
2022-10-11T22:37:05.569Z,99592.66
2022-10-11T22:39:32.202Z,99592.59
2022-10-11T22:41:59.145Z,99595.94
2022-10-11T22:44:25.735Z,99592.41
2022-10-11T22:46:52.365Z,99587.22
2022-10-11T22:49:18.970Z,99584.59
2022-10-11T22:51:45.684Z,99588.81
2022-10-11T22:54:12.379Z,99586.22
2022-10-11T22:56:39.010Z,99589.66
2022-10-11T22:59:05.682Z,99580.25
2022-10-11T23:01:32.300Z,99584.50
2022-10-11T23:03:59.065Z,99581.94
2022-10-11T23:06:25.741Z,99587.06
2022-10-11T23:08:52.380Z,99581.03
2022-10-11T23:11:18.992Z,99585.22
2022-10-11T23:13:45.648Z,99579.22
2022-10-11T23:16:12.891Z,99576.72
2022-10-11T23:18:39.718Z,99581.84
2022-10-11T23:21:06.830Z,99581.75
2022-10-11T23:23:33.629Z,99583.44
2022-10-11T23:26:11.587Z,99579.97
2022-10-11T23:28:38.342Z,99574.84
2022-10-11T23:31:09.072Z,99576.53
2022-10-11T23:33:35.924Z,99571.38
2022-10-11T23:36:02.824Z,99571.31
2022-10-11T23:38:29.527Z,99565.31
2022-10-11T23:40:56.138Z,99569.56
2022-10-11T23:43:22.968Z,99562.72
2022-10-11T23:45:49.620Z,99572.09
2022-10-11T23:48:16.196Z,99570.34
2022-10-11T23:50:42.767Z,99566.91
2022-10-11T23:53:10.165Z,99569.44
2022-10-11T23:55:36.725Z,99572.78
2022-10-11T23:58:03.329Z,99578.72
